sensor_id;sensor_type;location;lat;lon;timestamp;P1;durP1;ratioP1;P2;durP2;ratioP2
67902;SDS011;54708;43.612;1.568;2023-08-31T00:01:08;6.50;;;1.85;;
67902;SDS011;54708;43.612;1.568;2023-08-31T00:03:34;4.10;;;1.75;;
67902;SDS011;54708;43.612;1.568;2023-08-31T00:06:03;3.58;;;1.92;;
67902;SDS011;54708;43.612;1.568;2023-08-31T00:08:29;4.10;;;2.13;;
67902;SDS011;54708;43.612;1.568;2023-08-31T00:10:56;7.80;;;2.10;;
67902;SDS011;54708;43.612;1.568;2023-08-31T00:13:22;3.92;;;1.70;;
67902;SDS011;54708;43.612;1.568;2023-08-31T00:15:47;3.80;;;2.10;;
67902;SDS011;54708;43.612;1.568;2023-08-31T00:18:13;5.30;;;2.47;;
67902;SDS011;54708;43.612;1.568;2023-08-31T00:20:41;4.47;;;1.73;;
67902;SDS011;54708;43.612;1.568;2023-08-31T00:23:06;2.85;;;2.03;;
67902;SDS011;54708;43.612;1.568;2023-08-31T00:25:32;3.10;;;1.98;;
67902;SDS011;54708;43.612;1.568;2023-08-31T00:27:57;7.03;;;1.98;;
67902;SDS011;54708;43.612;1.568;2023-08-31T00:30:29;7.72;;;2.53;;
67902;SDS011;54708;43.612;1.568;2023-08-31T00:32:55;4.13;;;1.67;;
67902;SDS011;54708;43.612;1.568;2023-08-31T00:35:25;10.35;;;3.40;;
67902;SDS011;54708;43.612;1.568;2023-08-31T00:37:52;6.85;;;2.08;;
67902;SDS011;54708;43.612;1.568;2023-08-31T00:40:20;7.70;;;1.92;;
67902;SDS011;54708;43.612;1.568;2023-08-31T00:42:45;7.45;;;3.15;;
67902;SDS011;54708;43.612;1.568;2023-08-31T00:45:11;3.70;;;1.60;;
67902;SDS011;54708;43.612;1.568;2023-08-31T00:47:36;4.22;;;2.03;;
67902;SDS011;54708;43.612;1.568;2023-08-31T00:50:02;6.30;;;2.28;;
67902;SDS011;54708;43.612;1.568;2023-08-31T00:52:27;4.93;;;1.98;;
67902;SDS011;54708;43.612;1.568;2023-08-31T00:54:53;7.20;;;2.10;;
67902;SDS011;54708;43.612;1.568;2023-08-31T00:57:19;5.80;;;1.58;;
67902;SDS011;54708;43.612;1.568;2023-08-31T00:59:44;12.90;;;2.90;;
67902;SDS011;54708;43.612;1.568;2023-08-31T01:02:26;7.00;;;2.63;;
67902;SDS011;54708;43.612;1.568;2023-08-31T01:05:03;6.18;;;2.00;;
67902;SDS011;54708;43.612;1.568;2023-08-31T01:07:43;3.65;;;1.80;;
67902;SDS011;54708;43.612;1.568;2023-08-31T01:10:18;6.50;;;2.00;;
67902;SDS011;54708;43.612;1.568;2023-08-31T01:12:52;6.15;;;2.05;;
67902;SDS011;54708;43.612;1.568;2023-08-31T01:15:20;6.47;;;2.65;;
67902;SDS011;54708;43.612;1.568;2023-08-31T01:17:47;4.15;;;1.88;;
67902;SDS011;54708;43.612;1.568;2023-08-31T01:20:19;8.07;;;1.88;;
67902;SDS011;54708;43.612;1.568;2023-08-31T01:22:55;4.00;;;1.95;;
67902;SDS011;54708;43.612;1.568;2023-08-31T01:25:24;4.78;;;2.20;;
67902;SDS011;54708;43.612;1.568;2023-08-31T01:27:49;3.22;;;2.00;;
67902;SDS011;54708;43.612;1.568;2023-08-31T01:30:15;5.25;;;1.95;;
67902;SDS011;54708;43.612;1.568;2023-08-31T01:32:44;6.40;;;2.30;;
67902;SDS011;54708;43.612;1.568;2023-08-31T01:35:10;3.83;;;1.60;;
67902;SDS011;54708;43.612;1.568;2023-08-31T01:40:17;5.35;;;2.72;;
67902;SDS011;54708;43.612;1.568;2023-08-31T01:42:44;7.47;;;3.23;;
67902;SDS011;54708;43.612;1.568;2023-08-31T01:45:12;4.20;;;1.90;;
67902;SDS011;54708;43.612;1.568;2023-08-31T01:47:40;5.95;;;2.55;;
67902;SDS011;54708;43.612;1.568;2023-08-31T01:50:05;5.43;;;2.25;;
67902;SDS011;54708;43.612;1.568;2023-08-31T01:52:31;8.40;;;3.10;;
67902;SDS011;54708;43.612;1.568;2023-08-31T01:54:56;8.32;;;2.38;;
67902;SDS011;54708;43.612;1.568;2023-08-31T01:57:22;5.40;;;2.03;;
67902;SDS011;54708;43.612;1.568;2023-08-31T01:59:47;8.05;;;1.75;;
67902;SDS011;54708;43.612;1.568;2023-08-31T02:02:12;5.47;;;2.50;;
67902;SDS011;54708;43.612;1.568;2023-08-31T02:04:39;3.83;;;1.92;;
67902;SDS011;54708;43.612;1.568;2023-08-31T02:07:05;4.60;;;2.58;;
67902;SDS011;54708;43.612;1.568;2023-08-31T02:09:30;3.55;;;2.10;;
67902;SDS011;54708;43.612;1.568;2023-08-31T02:11:55;4.75;;;2.10;;
67902;SDS011;54708;43.612;1.568;2023-08-31T02:14:21;7.30;;;2.10;;
67902;SDS011;54708;43.612;1.568;2023-08-31T02:16:47;3.83;;;2.17;;
67902;SDS011;54708;43.612;1.568;2023-08-31T02:19:12;3.80;;;2.00;;
67902;SDS011;54708;43.612;1.568;2023-08-31T02:21:38;6.10;;;2.10;;
67902;SDS011;54708;43.612;1.568;2023-08-31T02:24:03;5.05;;;2.33;;
67902;SDS011;54708;43.612;1.568;2023-08-31T02:26:29;8.93;;;2.72;;
67902;SDS011;54708;43.612;1.568;2023-08-31T02:28:55;5.90;;;2.30;;
67902;SDS011;54708;43.612;1.568;2023-08-31T02:31:20;7.00;;;2.30;;
67902;SDS011;54708;43.612;1.568;2023-08-31T02:33:46;5.90;;;2.45;;
67902;SDS011;54708;43.612;1.568;2023-08-31T02:36:12;4.63;;;2.28;;
67902;SDS011;54708;43.612;1.568;2023-08-31T02:38:37;8.15;;;4.25;;
67902;SDS011;54708;43.612;1.568;2023-08-31T02:41:02;9.48;;;2.88;;
67902;SDS011;54708;43.612;1.568;2023-08-31T02:43:28;2.85;;;2.38;;
67902;SDS011;54708;43.612;1.568;2023-08-31T02:46:01;6.22;;;2.83;;
67902;SDS011;54708;43.612;1.568;2023-08-31T02:48:28;7.40;;;2.35;;
67902;SDS011;54708;43.612;1.568;2023-08-31T02:50:55;4.95;;;2.35;;
67902;SDS011;54708;43.612;1.568;2023-08-31T02:53:21;6.18;;;2.30;;
67902;SDS011;54708;43.612;1.568;2023-08-31T02:55:47;6.07;;;2.83;;
67902;SDS011;54708;43.612;1.568;2023-08-31T02:58:13;8.60;;;2.40;;
67902;SDS011;54708;43.612;1.568;2023-08-31T03:00:38;6.50;;;2.40;;
67902;SDS011;54708;43.612;1.568;2023-08-31T03:03:07;4.40;;;2.42;;
67902;SDS011;54708;43.612;1.568;2023-08-31T03:05:33;8.05;;;2.67;;
67902;SDS011;54708;43.612;1.568;2023-08-31T03:07:58;6.78;;;2.20;;
67902;SDS011;54708;43.612;1.568;2023-08-31T03:10:24;7.78;;;3.17;;
67902;SDS011;54708;43.612;1.568;2023-08-31T03:12:49;7.15;;;3.13;;
67902;SDS011;54708;43.612;1.568;2023-08-31T03:15:15;6.10;;;2.25;;
67902;SDS011;54708;43.612;1.568;2023-08-31T03:17:40;6.05;;;2.38;;
67902;SDS011;54708;43.612;1.568;2023-08-31T03:20:07;3.45;;;2.38;;
67902;SDS011;54708;43.612;1.568;2023-08-31T03:22:32;6.68;;;2.72;;
67902;SDS011;54708;43.612;1.568;2023-08-31T03:24:58;6.55;;;2.30;;
67902;SDS011;54708;43.612;1.568;2023-08-31T03:27:23;3.70;;;2.35;;
67902;SDS011;54708;43.612;1.568;2023-08-31T03:29:49;6.57;;;2.60;;
67902;SDS011;54708;43.612;1.568;2023-08-31T03:32:15;9.82;;;3.55;;
67902;SDS011;54708;43.612;1.568;2023-08-31T03:34:40;5.60;;;2.85;;
67902;SDS011;54708;43.612;1.568;2023-08-31T03:37:06;5.13;;;2.70;;
67902;SDS011;54708;43.612;1.568;2023-08-31T03:39:31;5.00;;;2.75;;
67902;SDS011;54708;43.612;1.568;2023-08-31T03:41:56;7.30;;;2.65;;
67902;SDS011;54708;43.612;1.568;2023-08-31T03:44:22;6.75;;;2.22;;
67902;SDS011;54708;43.612;1.568;2023-08-31T03:46:47;4.68;;;2.92;;
67902;SDS011;54708;43.612;1.568;2023-08-31T03:49:13;6.38;;;2.42;;
67902;SDS011;54708;43.612;1.568;2023-08-31T03:51:38;7.03;;;3.45;;
67902;SDS011;54708;43.612;1.568;2023-08-31T03:54:03;9.50;;;2.65;;
67902;SDS011;54708;43.612;1.568;2023-08-31T03:56:29;5.45;;;2.80;;
67902;SDS011;54708;43.612;1.568;2023-08-31T03:58:54;4.65;;;2.80;;
67902;SDS011;54708;43.612;1.568;2023-08-31T04:01:20;5.68;;;2.40;;
67902;SDS011;54708;43.612;1.568;2023-08-31T04:03:45;8.45;;;2.78;;
67902;SDS011;54708;43.612;1.568;2023-08-31T04:06:11;5.43;;;3.30;;
67902;SDS011;54708;43.612;1.568;2023-08-31T04:08:36;5.60;;;2.33;;
67902;SDS011;54708;43.612;1.568;2023-08-31T04:11:02;10.25;;;2.90;;
67902;SDS011;54708;43.612;1.568;2023-08-31T04:13:28;9.02;;;2.58;;
67902;SDS011;54708;43.612;1.568;2023-08-31T04:15:53;6.40;;;3.40;;
67902;SDS011;54708;43.612;1.568;2023-08-31T04:18:19;5.57;;;2.33;;
67902;SDS011;54708;43.612;1.568;2023-08-31T04:20:51;6.25;;;2.55;;
67902;SDS011;54708;43.612;1.568;2023-08-31T04:23:17;11.00;;;2.55;;
67902;SDS011;54708;43.612;1.568;2023-08-31T04:25:43;4.18;;;2.17;;
67902;SDS011;54708;43.612;1.568;2023-08-31T04:28:09;9.65;;;2.22;;
67902;SDS011;54708;43.612;1.568;2023-08-31T04:30:35;5.47;;;3.17;;
67902;SDS011;54708;43.612;1.568;2023-08-31T04:33:00;6.38;;;3.00;;
67902;SDS011;54708;43.612;1.568;2023-08-31T04:35:25;5.15;;;2.60;;
67902;SDS011;54708;43.612;1.568;2023-08-31T04:37:51;3.63;;;2.10;;
67902;SDS011;54708;43.612;1.568;2023-08-31T04:40:16;6.50;;;3.05;;
67902;SDS011;54708;43.612;1.568;2023-08-31T04:42:42;5.63;;;2.90;;
67902;SDS011;54708;43.612;1.568;2023-08-31T04:45:08;4.35;;;2.50;;
67902;SDS011;54708;43.612;1.568;2023-08-31T04:47:33;5.05;;;2.47;;
67902;SDS011;54708;43.612;1.568;2023-08-31T04:49:59;5.82;;;2.38;;
67902;SDS011;54708;43.612;1.568;2023-08-31T04:52:24;5.97;;;2.65;;
67902;SDS011;54708;43.612;1.568;2023-08-31T04:54:50;4.78;;;2.55;;
67902;SDS011;54708;43.612;1.568;2023-08-31T04:57:15;7.22;;;2.55;;
67902;SDS011;54708;43.612;1.568;2023-08-31T04:59:40;6.03;;;2.67;;
67902;SDS011;54708;43.612;1.568;2023-08-31T05:02:06;4.43;;;2.20;;
67902;SDS011;54708;43.612;1.568;2023-08-31T05:04:31;5.38;;;2.80;;
67902;SDS011;54708;43.612;1.568;2023-08-31T05:06:56;5.90;;;3.15;;
67902;SDS011;54708;43.612;1.568;2023-08-31T05:09:24;5.63;;;2.88;;
67902;SDS011;54708;43.612;1.568;2023-08-31T05:11:49;8.93;;;2.65;;
67902;SDS011;54708;43.612;1.568;2023-08-31T05:14:15;5.50;;;2.67;;
67902;SDS011;54708;43.612;1.568;2023-08-31T05:16:40;5.38;;;2.42;;
67902;SDS011;54708;43.612;1.568;2023-08-31T05:19:06;6.55;;;2.63;;
67902;SDS011;54708;43.612;1.568;2023-08-31T05:21:31;7.88;;;2.25;;
67902;SDS011;54708;43.612;1.568;2023-08-31T05:23:56;4.97;;;3.03;;
67902;SDS011;54708;43.612;1.568;2023-08-31T05:26:22;6.57;;;2.72;;
67902;SDS011;54708;43.612;1.568;2023-08-31T05:28:48;6.10;;;2.47;;
67902;SDS011;54708;43.612;1.568;2023-08-31T05:31:13;6.00;;;3.13;;
67902;SDS011;54708;43.612;1.568;2023-08-31T05:33:39;6.97;;;2.97;;
67902;SDS011;54708;43.612;1.568;2023-08-31T05:36:04;8.57;;;2.75;;
67902;SDS011;54708;43.612;1.568;2023-08-31T05:38:30;6.25;;;2.55;;
67902;SDS011;54708;43.612;1.568;2023-08-31T05:41:03;7.95;;;2.58;;
67902;SDS011;54708;43.612;1.568;2023-08-31T05:43:31;4.20;;;3.05;;
67902;SDS011;54708;43.612;1.568;2023-08-31T05:45:57;10.23;;;2.50;;
67902;SDS011;54708;43.612;1.568;2023-08-31T05:48:22;8.00;;;2.80;;
67902;SDS011;54708;43.612;1.568;2023-08-31T05:50:48;6.65;;;2.97;;
67902;SDS011;54708;43.612;1.568;2023-08-31T05:53:13;11.02;;;3.17;;
67902;SDS011;54708;43.612;1.568;2023-08-31T05:55:39;8.77;;;3.00;;
67902;SDS011;54708;43.612;1.568;2023-08-31T05:58:04;8.98;;;3.47;;
67902;SDS011;54708;43.612;1.568;2023-08-31T06:00:29;7.72;;;3.13;;
67902;SDS011;54708;43.612;1.568;2023-08-31T06:02:55;6.65;;;3.33;;
67902;SDS011;54708;43.612;1.568;2023-08-31T06:05:20;7.70;;;3.30;;
67902;SDS011;54708;43.612;1.568;2023-08-31T06:07:46;9.98;;;3.88;;
67902;SDS011;54708;43.612;1.568;2023-08-31T06:10:11;4.63;;;2.90;;
67902;SDS011;54708;43.612;1.568;2023-08-31T06:12:37;4.10;;;2.97;;
67902;SDS011;54708;43.612;1.568;2023-08-31T06:15:02;12.10;;;3.72;;
67902;SDS011;54708;43.612;1.568;2023-08-31T06:17:28;11.00;;;3.70;;
67902;SDS011;54708;43.612;1.568;2023-08-31T06:19:53;7.68;;;3.58;;
67902;SDS011;54708;43.612;1.568;2023-08-31T06:22:19;14.93;;;4.07;;
67902;SDS011;54708;43.612;1.568;2023-08-31T06:24:46;5.90;;;3.17;;
67902;SDS011;54708;43.612;1.568;2023-08-31T06:27:12;10.02;;;4.05;;
67902;SDS011;54708;43.612;1.568;2023-08-31T06:29:38;10.40;;;3.47;;
67902;SDS011;54708;43.612;1.568;2023-08-31T06:32:03;7.68;;;3.50;;
67902;SDS011;54708;43.612;1.568;2023-08-31T06:34:29;6.30;;;2.85;;
67902;SDS011;54708;43.612;1.568;2023-08-31T06:36:56;11.10;;;4.05;;
67902;SDS011;54708;43.612;1.568;2023-08-31T06:39:23;6.95;;;3.38;;
67902;SDS011;54708;43.612;1.568;2023-08-31T06:41:48;18.05;;;4.78;;
67902;SDS011;54708;43.612;1.568;2023-08-31T06:44:14;11.18;;;3.70;;
67902;SDS011;54708;43.612;1.568;2023-08-31T06:46:39;6.50;;;3.28;;
67902;SDS011;54708;43.612;1.568;2023-08-31T06:49:05;8.77;;;3.38;;
67902;SDS011;54708;43.612;1.568;2023-08-31T06:51:31;9.55;;;3.58;;
67902;SDS011;54708;43.612;1.568;2023-08-31T06:53:57;7.57;;;3.50;;
67902;SDS011;54708;43.612;1.568;2023-08-31T06:56:29;7.55;;;3.30;;
67902;SDS011;54708;43.612;1.568;2023-08-31T06:58:55;5.80;;;2.80;;
67902;SDS011;54708;43.612;1.568;2023-08-31T07:01:20;11.07;;;4.70;;
67902;SDS011;54708;43.612;1.568;2023-08-31T07:03:45;9.00;;;3.17;;
67902;SDS011;54708;43.612;1.568;2023-08-31T07:06:11;4.97;;;2.55;;
67902;SDS011;54708;43.612;1.568;2023-08-31T07:08:36;9.02;;;3.42;;
67902;SDS011;54708;43.612;1.568;2023-08-31T07:11:05;8.63;;;2.70;;
67902;SDS011;54708;43.612;1.568;2023-08-31T07:13:31;11.00;;;3.65;;
67902;SDS011;54708;43.612;1.568;2023-08-31T07:15:56;10.32;;;3.58;;
67902;SDS011;54708;43.612;1.568;2023-08-31T07:18:21;11.63;;;3.92;;
67902;SDS011;54708;43.612;1.568;2023-08-31T07:20:47;4.63;;;2.60;;
67902;SDS011;54708;43.612;1.568;2023-08-31T07:23:12;9.10;;;3.67;;
67902;SDS011;54708;43.612;1.568;2023-08-31T07:25:37;10.70;;;3.97;;
67902;SDS011;54708;43.612;1.568;2023-08-31T07:28:03;9.18;;;3.60;;
67902;SDS011;54708;43.612;1.568;2023-08-31T07:30:28;8.32;;;4.13;;
67902;SDS011;54708;43.612;1.568;2023-08-31T07:32:55;8.05;;;3.60;;
67902;SDS011;54708;43.612;1.568;2023-08-31T07:35:20;11.65;;;3.35;;
67902;SDS011;54708;43.612;1.568;2023-08-31T07:37:46;13.68;;;3.95;;
67902;SDS011;54708;43.612;1.568;2023-08-31T07:40:11;14.02;;;4.18;;
67902;SDS011;54708;43.612;1.568;2023-08-31T07:42:37;8.02;;;3.63;;
67902;SDS011;54708;43.612;1.568;2023-08-31T07:45:03;12.77;;;4.63;;
67902;SDS011;54708;43.612;1.568;2023-08-31T07:47:30;10.52;;;3.42;;
67902;SDS011;54708;43.612;1.568;2023-08-31T07:49:56;9.73;;;3.63;;
67902;SDS011;54708;43.612;1.568;2023-08-31T07:52:21;19.98;;;5.45;;
67902;SDS011;54708;43.612;1.568;2023-08-31T07:54:47;10.65;;;3.90;;
67902;SDS011;54708;43.612;1.568;2023-08-31T07:57:14;12.50;;;4.55;;
67902;SDS011;54708;43.612;1.568;2023-08-31T07:59:40;14.70;;;5.18;;
67902;SDS011;54708;43.612;1.568;2023-08-31T08:02:05;10.52;;;4.18;;
67902;SDS011;54708;43.612;1.568;2023-08-31T08:04:31;8.68;;;4.05;;
67902;SDS011;54708;43.612;1.568;2023-08-31T08:06:57;10.65;;;3.63;;
67902;SDS011;54708;43.612;1.568;2023-08-31T08:09:23;10.90;;;4.03;;
67902;SDS011;54708;43.612;1.568;2023-08-31T08:11:48;10.02;;;4.00;;
67902;SDS011;54708;43.612;1.568;2023-08-31T08:14:14;10.93;;;4.63;;
67902;SDS011;54708;43.612;1.568;2023-08-31T08:16:40;8.68;;;3.60;;
67902;SDS011;54708;43.612;1.568;2023-08-31T08:19:06;10.45;;;4.07;;
67902;SDS011;54708;43.612;1.568;2023-08-31T08:21:32;8.80;;;3.83;;
67902;SDS011;54708;43.612;1.568;2023-08-31T08:23:58;10.48;;;3.60;;
67902;SDS011;54708;43.612;1.568;2023-08-31T08:26:24;9.20;;;3.70;;
67902;SDS011;54708;43.612;1.568;2023-08-31T08:28:50;7.47;;;3.60;;
67902;SDS011;54708;43.612;1.568;2023-08-31T08:31:15;8.95;;;3.65;;
67902;SDS011;54708;43.612;1.568;2023-08-31T08:33:41;11.38;;;4.05;;
67902;SDS011;54708;43.612;1.568;2023-08-31T08:36:07;9.88;;;4.18;;
67902;SDS011;54708;43.612;1.568;2023-08-31T08:38:33;14.63;;;3.55;;
67902;SDS011;54708;43.612;1.568;2023-08-31T08:41:09;14.98;;;3.50;;
67902;SDS011;54708;43.612;1.568;2023-08-31T08:43:36;8.70;;;3.17;;
67902;SDS011;54708;43.612;1.568;2023-08-31T08:46:05;9.43;;;3.72;;
67902;SDS011;54708;43.612;1.568;2023-08-31T08:48:32;7.55;;;2.97;;
67902;SDS011;54708;43.612;1.568;2023-08-31T08:51:04;7.25;;;2.58;;
67902;SDS011;54708;43.612;1.568;2023-08-31T08:53:30;15.80;;;4.25;;
67902;SDS011;54708;43.612;1.568;2023-08-31T08:55:56;9.45;;;3.60;;
67902;SDS011;54708;43.612;1.568;2023-08-31T08:58:23;8.50;;;3.60;;
67902;SDS011;54708;43.612;1.568;2023-08-31T09:00:51;5.20;;;2.47;;
67902;SDS011;54708;43.612;1.568;2023-08-31T09:03:21;5.07;;;2.10;;
67902;SDS011;54708;43.612;1.568;2023-08-31T09:05:46;9.23;;;2.90;;
67902;SDS011;54708;43.612;1.568;2023-08-31T09:08:12;14.90;;;3.50;;
67902;SDS011;54708;43.612;1.568;2023-08-31T09:10:42;3.70;;;1.85;;
67902;SDS011;54708;43.612;1.568;2023-08-31T09:20:49;4.43;;;2.33;;
67902;SDS011;54708;43.612;1.568;2023-08-31T09:23:18;11.32;;;2.38;;
67902;SDS011;54708;43.612;1.568;2023-08-31T09:25:50;9.30;;;2.83;;
67902;SDS011;54708;43.612;1.568;2023-08-31T09:28:25;10.85;;;2.50;;
67902;SDS011;54708;43.612;1.568;2023-08-31T09:30:52;7.40;;;2.83;;
67902;SDS011;54708;43.612;1.568;2023-08-31T09:33:37;5.97;;;2.15;;
67902;SDS011;54708;43.612;1.568;2023-08-31T09:36:02;5.57;;;2.22;;
67902;SDS011;54708;43.612;1.568;2023-08-31T09:38:29;7.07;;;2.08;;
67902;SDS011;54708;43.612;1.568;2023-08-31T09:41:06;6.28;;;2.05;;
67902;SDS011;54708;43.612;1.568;2023-08-31T09:43:32;7.50;;;2.10;;
67902;SDS011;54708;43.612;1.568;2023-08-31T09:45:59;6.03;;;1.95;;
67902;SDS011;54708;43.612;1.568;2023-08-31T09:48:26;6.10;;;1.92;;
67902;SDS011;54708;43.612;1.568;2023-08-31T09:50:52;10.88;;;3.60;;
67902;SDS011;54708;43.612;1.568;2023-08-31T09:53:19;4.07;;;2.00;;
67902;SDS011;54708;43.612;1.568;2023-08-31T09:56:08;6.28;;;2.63;;
67902;SDS011;54708;43.612;1.568;2023-08-31T09:58:38;5.45;;;2.30;;
67902;SDS011;54708;43.612;1.568;2023-08-31T10:01:04;5.05;;;1.67;;
67902;SDS011;54708;43.612;1.568;2023-08-31T10:03:30;3.33;;;2.00;;
67902;SDS011;54708;43.612;1.568;2023-08-31T10:05:56;6.15;;;1.75;;
67902;SDS011;54708;43.612;1.568;2023-08-31T10:08:22;4.25;;;1.90;;
67902;SDS011;54708;43.612;1.568;2023-08-31T10:10:49;7.40;;;2.40;;
67902;SDS011;54708;43.612;1.568;2023-08-31T10:13:14;3.78;;;1.50;;
67902;SDS011;54708;43.612;1.568;2023-08-31T10:15:41;10.57;;;2.13;;
67902;SDS011;54708;43.612;1.568;2023-08-31T10:18:08;9.57;;;2.45;;
67902;SDS011;54708;43.612;1.568;2023-08-31T10:20:34;4.57;;;1.75;;
67902;SDS011;54708;43.612;1.568;2023-08-31T10:23:08;5.00;;;2.00;;
67902;SDS011;54708;43.612;1.568;2023-08-31T10:28:18;6.85;;;2.20;;
67902;SDS011;54708;43.612;1.568;2023-08-31T10:31:00;4.63;;;1.73;;
67902;SDS011;54708;43.612;1.568;2023-08-31T10:35:53;7.10;;;1.77;;
67902;SDS011;54708;43.612;1.568;2023-08-31T10:41:02;4.90;;;2.30;;
67902;SDS011;54708;43.612;1.568;2023-08-31T10:43:45;8.20;;;2.22;;
67902;SDS011;54708;43.612;1.568;2023-08-31T10:46:24;9.57;;;2.22;;
67902;SDS011;54708;43.612;1.568;2023-08-31T10:48:57;8.43;;;2.20;;
67902;SDS011;54708;43.612;1.568;2023-08-31T10:51:23;6.15;;;2.00;;
67902;SDS011;54708;43.612;1.568;2023-08-31T10:53:50;8.70;;;2.30;;
67902;SDS011;54708;43.612;1.568;2023-08-31T10:56:16;7.97;;;2.55;;
67902;SDS011;54708;43.612;1.568;2023-08-31T10:58:42;5.75;;;2.80;;
67902;SDS011;54708;43.612;1.568;2023-08-31T11:01:09;5.07;;;1.90;;
67902;SDS011;54708;43.612;1.568;2023-08-31T11:03:56;8.70;;;2.20;;
67902;SDS011;54708;43.612;1.568;2023-08-31T11:06:23;7.30;;;2.63;;
67902;SDS011;54708;43.612;1.568;2023-08-31T11:08:53;7.97;;;2.33;;
67902;SDS011;54708;43.612;1.568;2023-08-31T11:11:19;5.43;;;2.03;;
67902;SDS011;54708;43.612;1.568;2023-08-31T11:13:45;3.83;;;1.90;;
67902;SDS011;54708;43.612;1.568;2023-08-31T11:16:10;6.65;;;2.10;;
67902;SDS011;54708;43.612;1.568;2023-08-31T11:18:36;6.43;;;2.33;;
67902;SDS011;54708;43.612;1.568;2023-08-31T11:21:02;8.40;;;2.70;;
67902;SDS011;54708;43.612;1.568;2023-08-31T11:23:30;4.32;;;2.03;;
67902;SDS011;54708;43.612;1.568;2023-08-31T11:25:56;11.50;;;2.60;;
67902;SDS011;54708;43.612;1.568;2023-08-31T11:28:21;6.45;;;2.53;;
67902;SDS011;54708;43.612;1.568;2023-08-31T11:30:48;6.57;;;2.30;;
67902;SDS011;54708;43.612;1.568;2023-08-31T11:33:16;8.50;;;2.67;;
67902;SDS011;54708;43.612;1.568;2023-08-31T11:35:43;9.88;;;2.65;;
67902;SDS011;54708;43.612;1.568;2023-08-31T11:38:09;6.50;;;2.40;;
67902;SDS011;54708;43.612;1.568;2023-08-31T11:40:36;9.10;;;2.88;;
67902;SDS011;54708;43.612;1.568;2023-08-31T11:43:02;5.05;;;2.33;;
67902;SDS011;54708;43.612;1.568;2023-08-31T11:45:29;8.80;;;2.38;;
67902;SDS011;54708;43.612;1.568;2023-08-31T11:47:55;5.93;;;2.45;;
67902;SDS011;54708;43.612;1.568;2023-08-31T11:50:21;5.95;;;2.22;;
67902;SDS011;54708;43.612;1.568;2023-08-31T11:52:47;7.10;;;2.67;;
67902;SDS011;54708;43.612;1.568;2023-08-31T11:55:14;4.60;;;2.25;;
67902;SDS011;54708;43.612;1.568;2023-08-31T11:57:40;6.25;;;1.90;;
67902;SDS011;54708;43.612;1.568;2023-08-31T12:00:05;7.45;;;2.72;;
67902;SDS011;54708;43.612;1.568;2023-08-31T12:02:34;5.75;;;2.25;;
67902;SDS011;54708;43.612;1.568;2023-08-31T12:05:01;5.57;;;1.98;;
67902;SDS011;54708;43.612;1.568;2023-08-31T12:07:26;5.65;;;2.75;;
67902;SDS011;54708;43.612;1.568;2023-08-31T12:09:51;5.78;;;2.22;;
67902;SDS011;54708;43.612;1.568;2023-08-31T12:12:20;10.20;;;2.78;;
67902;SDS011;54708;43.612;1.568;2023-08-31T12:14:46;2.60;;;1.60;;
67902;SDS011;54708;43.612;1.568;2023-08-31T12:17:11;4.35;;;2.30;;
67902;SDS011;54708;43.612;1.568;2023-08-31T12:19:37;3.55;;;1.90;;
67902;SDS011;54708;43.612;1.568;2023-08-31T12:22:04;4.40;;;1.90;;
67902;SDS011;54708;43.612;1.568;2023-08-31T12:24:29;3.75;;;1.83;;
67902;SDS011;54708;43.612;1.568;2023-08-31T12:27:02;3.45;;;1.85;;
67902;SDS011;54708;43.612;1.568;2023-08-31T12:29:30;3.33;;;1.98;;
67902;SDS011;54708;43.612;1.568;2023-08-31T12:31:55;4.90;;;1.85;;
67902;SDS011;54708;43.612;1.568;2023-08-31T12:34:21;5.50;;;2.33;;
67902;SDS011;54708;43.612;1.568;2023-08-31T12:36:46;7.10;;;2.78;;
67902;SDS011;54708;43.612;1.568;2023-08-31T12:39:11;6.95;;;3.25;;
67902;SDS011;54708;43.612;1.568;2023-08-31T12:41:37;4.70;;;1.83;;
67902;SDS011;54708;43.612;1.568;2023-08-31T12:44:03;6.93;;;2.00;;
67902;SDS011;54708;43.612;1.568;2023-08-31T12:46:29;7.95;;;2.17;;
67902;SDS011;54708;43.612;1.568;2023-08-31T12:48:55;5.38;;;2.25;;
67902;SDS011;54708;43.612;1.568;2023-08-31T12:51:20;6.45;;;2.90;;
67902;SDS011;54708;43.612;1.568;2023-08-31T12:53:46;9.43;;;2.20;;
67902;SDS011;54708;43.612;1.568;2023-08-31T12:56:12;3.85;;;1.58;;
67902;SDS011;54708;43.612;1.568;2023-08-31T12:58:37;4.60;;;2.03;;
67902;SDS011;54708;43.612;1.568;2023-08-31T13:01:03;3.97;;;1.73;;
67902;SDS011;54708;43.612;1.568;2023-08-31T13:03:29;7.07;;;2.33;;
67902;SDS011;54708;43.612;1.568;2023-08-31T13:05:54;1.70;;;1.02;;
67902;SDS011;54708;43.612;1.568;2023-08-31T13:08:19;5.28;;;1.77;;
67902;SDS011;54708;43.612;1.568;2023-08-31T13:10:52;5.28;;;2.33;;
67902;SDS011;54708;43.612;1.568;2023-08-31T13:13:18;3.55;;;1.42;;
67902;SDS011;54708;43.612;1.568;2023-08-31T13:15:45;3.58;;;1.95;;
67902;SDS011;54708;43.612;1.568;2023-08-31T13:18:11;4.88;;;1.65;;
67902;SDS011;54708;43.612;1.568;2023-08-31T13:20:37;8.90;;;2.58;;
67902;SDS011;54708;43.612;1.568;2023-08-31T13:23:02;3.20;;;1.63;;
67902;SDS011;54708;43.612;1.568;2023-08-31T13:25:28;3.50;;;1.60;;
67902;SDS011;54708;43.612;1.568;2023-08-31T13:27:53;2.88;;;1.70;;
67902;SDS011;54708;43.612;1.568;2023-08-31T13:30:18;2.58;;;1.15;;
67902;SDS011;54708;43.612;1.568;2023-08-31T13:32:44;6.15;;;2.15;;
67902;SDS011;54708;43.612;1.568;2023-08-31T13:35:09;2.15;;;1.60;;
67902;SDS011;54708;43.612;1.568;2023-08-31T13:37:35;2.25;;;1.83;;
67902;SDS011;54708;43.612;1.568;2023-08-31T13:40:00;6.38;;;2.05;;
67902;SDS011;54708;43.612;1.568;2023-08-31T13:42:26;6.80;;;2.35;;
67902;SDS011;54708;43.612;1.568;2023-08-31T13:44:51;5.53;;;1.40;;
67902;SDS011;54708;43.612;1.568;2023-08-31T13:47:17;5.43;;;1.55;;
67902;SDS011;54708;43.612;1.568;2023-08-31T13:49:42;2.85;;;1.83;;
67902;SDS011;54708;43.612;1.568;2023-08-31T13:52:07;3.10;;;1.70;;
67902;SDS011;54708;43.612;1.568;2023-08-31T13:54:34;1.85;;;1.42;;
67902;SDS011;54708;43.612;1.568;2023-08-31T13:56:59;4.13;;;1.63;;
67902;SDS011;54708;43.612;1.568;2023-08-31T13:59:25;2.25;;;1.40;;
67902;SDS011;54708;43.612;1.568;2023-08-31T14:01:52;6.03;;;1.42;;
67902;SDS011;54708;43.612;1.568;2023-08-31T14:04:18;2.53;;;1.42;;
67902;SDS011;54708;43.612;1.568;2023-08-31T14:06:44;4.72;;;2.00;;
67902;SDS011;54708;43.612;1.568;2023-08-31T14:09:09;4.95;;;2.55;;
67902;SDS011;54708;43.612;1.568;2023-08-31T14:11:34;4.45;;;1.83;;
67902;SDS011;54708;43.612;1.568;2023-08-31T14:14:01;5.35;;;2.10;;
67902;SDS011;54708;43.612;1.568;2023-08-31T14:16:36;2.95;;;1.65;;
67902;SDS011;54708;43.612;1.568;2023-08-31T14:19:02;5.55;;;1.77;;
67902;SDS011;54708;43.612;1.568;2023-08-31T14:21:28;7.07;;;1.67;;
67902;SDS011;54708;43.612;1.568;2023-08-31T14:23:54;6.60;;;2.30;;
67902;SDS011;54708;43.612;1.568;2023-08-31T14:26:21;3.75;;;1.48;;
67902;SDS011;54708;43.612;1.568;2023-08-31T14:28:52;3.03;;;1.30;;
67902;SDS011;54708;43.612;1.568;2023-08-31T14:31:18;4.05;;;1.90;;
67902;SDS011;54708;43.612;1.568;2023-08-31T14:33:44;5.38;;;1.83;;
67902;SDS011;54708;43.612;1.568;2023-08-31T14:36:10;4.40;;;1.80;;
67902;SDS011;54708;43.612;1.568;2023-08-31T14:38:35;4.45;;;1.60;;
67902;SDS011;54708;43.612;1.568;2023-08-31T14:41:00;4.90;;;1.70;;
67902;SDS011;54708;43.612;1.568;2023-08-31T14:43:26;4.35;;;2.03;;
67902;SDS011;54708;43.612;1.568;2023-08-31T14:45:52;5.60;;;2.75;;
67902;SDS011;54708;43.612;1.568;2023-08-31T14:48:17;1.80;;;1.30;;
67902;SDS011;54708;43.612;1.568;2023-08-31T14:50:43;7.70;;;2.03;;
67902;SDS011;54708;43.612;1.568;2023-08-31T14:53:08;4.78;;;1.55;;
67902;SDS011;54708;43.612;1.568;2023-08-31T14:55:34;2.20;;;1.40;;
67902;SDS011;54708;43.612;1.568;2023-08-31T14:57:59;3.88;;;2.63;;
67902;SDS011;54708;43.612;1.568;2023-08-31T15:00:25;3.53;;;1.58;;